createdAt,value
2023-03-24T00:02:23.004Z,2.53
2023-03-24T00:05:18.251Z,2.60
2023-03-24T00:08:07.609Z,2.63
2023-03-24T00:11:01.323Z,2.53
2023-03-24T00:13:51.205Z,2.70
2023-03-24T00:16:43.762Z,2.58
2023-03-24T00:19:34.946Z,2.45
2023-03-24T00:22:24.192Z,3.15
2023-03-24T00:25:13.563Z,2.45
2023-03-24T00:28:04.179Z,2.63
2023-03-24T00:30:53.760Z,2.40
2023-03-24T00:33:45.051Z,2.63
2023-03-24T00:36:34.598Z,2.47
2023-03-24T00:39:23.911Z,2.47
2023-03-24T00:42:14.832Z,2.42
2023-03-24T00:45:06.191Z,2.28
2023-03-24T00:47:55.774Z,2.33
2023-03-24T00:50:50.316Z,2.42
2023-03-24T00:53:45.059Z,2.30
2023-03-24T00:56:36.805Z,2.60
2023-03-24T00:59:26.472Z,2.50
2023-03-24T01:02:23.549Z,2.53
2023-03-24T01:05:13.105Z,2.85
2023-03-24T01:08:05.686Z,2.40
2023-03-24T01:10:56.092Z,2.35
2023-03-24T01:13:45.397Z,2.50
2023-03-24T01:16:34.776Z,2.67
2023-03-24T01:19:24.211Z,2.50
2023-03-24T01:22:13.942Z,2.40
2023-03-24T01:25:03.228Z,2.80
2023-03-24T01:27:54.656Z,2.55
2023-03-24T01:30:44.995Z,2.55
2023-03-24T01:33:34.604Z,2.30
2023-03-24T01:36:24.054Z,2.60
2023-03-24T01:39:13.425Z,2.40
2023-03-24T01:42:02.816Z,2.10
2023-03-24T01:44:55.546Z,2.40
2023-03-24T01:47:44.916Z,2.30
2023-03-24T01:50:34.535Z,2.40
2023-03-24T01:53:24.474Z,3.00
2023-03-24T01:56:14.647Z,2.20
2023-03-24T01:59:14.752Z,2.72
2023-03-24T02:02:23.238Z,2.35
2023-03-24T02:05:19.435Z,2.72
2023-03-24T02:08:34.194Z,2.50
2023-03-24T02:11:26.690Z,2.50
2023-03-24T02:14:20.001Z,2.30
2023-03-24T02:17:42.264Z,2.63
2023-03-24T02:21:02.362Z,2.85
2023-03-24T02:24:24.701Z,2.80
2023-03-24T02:27:43.244Z,2.50
2023-03-24T02:31:09.525Z,2.75
2023-03-24T02:34:32.860Z,2.42
2023-03-24T02:37:52.373Z,2.42
2023-03-24T02:40:47.947Z,3.38
2023-03-24T02:43:55.639Z,2.55
2023-03-24T02:46:50.570Z,2.65
2023-03-24T02:50:08.914Z,2.45
2023-03-24T02:53:24.162Z,2.67
2023-03-24T02:56:48.951Z,2.40
2023-03-24T02:59:59.051Z,2.67
2023-03-24T03:03:46.111Z,2.38
2023-03-24T03:06:40.891Z,2.42
2023-03-24T03:09:31.150Z,2.35
2023-03-24T03:12:23.716Z,2.40
2023-03-24T03:15:24.664Z,2.67
2023-03-24T03:18:24.316Z,2.42
2023-03-24T03:21:17.513Z,3.20
2023-03-24T03:24:27.881Z,2.55
2023-03-24T03:27:28.297Z,2.65
2023-03-24T03:30:24.004Z,2.63
2023-03-24T03:33:42.077Z,2.60
2023-03-24T03:36:39.811Z,2.60
2023-03-24T03:39:34.667Z,2.40
2023-03-24T03:42:27.378Z,2.40
2023-03-24T03:45:17.589Z,2.47
2023-03-24T03:48:07.827Z,2.60
2023-03-24T03:51:10.349Z,2.60
2023-03-24T03:54:06.760Z,2.70
2023-03-24T03:56:56.889Z,2.53
2023-03-24T03:59:49.904Z,2.50
2023-03-24T04:03:02.814Z,2.70
2023-03-24T04:06:05.253Z,2.35
2023-03-24T04:08:57.980Z,2.60
2023-03-24T04:12:10.099Z,2.90
2023-03-24T04:15:37.257Z,2.85
2023-03-24T04:19:01.095Z,2.53
2023-03-24T04:22:16.624Z,3.05
2023-03-24T04:25:36.419Z,2.60
2023-03-24T04:28:32.044Z,2.60
2023-03-24T04:31:35.214Z,2.30
2023-03-24T04:34:34.214Z,2.40
2023-03-24T04:37:34.401Z,2.65
2023-03-24T04:40:27.802Z,3.05
2023-03-24T04:43:21.677Z,2.60
2023-03-24T04:46:12.953Z,2.40
2023-03-24T04:49:13.413Z,2.63
2023-03-24T04:52:03.990Z,2.60
2023-03-24T04:54:55.832Z,2.67
2023-03-24T04:57:45.786Z,2.30
2023-03-24T05:00:35.105Z,2.38
2023-03-24T05:03:24.469Z,2.40
2023-03-24T05:06:14.024Z,2.50
2023-03-24T05:09:03.347Z,2.63
2023-03-24T05:11:55.669Z,2.97
2023-03-24T05:14:45.653Z,2.50
2023-03-24T05:17:35.070Z,2.50
2023-03-24T05:20:26.486Z,2.80
2023-03-24T05:23:18.322Z,2.50
2023-03-24T05:26:09.491Z,2.53
2023-03-24T05:29:14.084Z,2.60
2023-03-24T05:32:04.033Z,2.40
2023-03-24T05:34:53.333Z,2.72
2023-03-24T05:37:50.980Z,2.53
2023-03-24T05:40:40.402Z,3.05
2023-03-24T05:43:36.691Z,2.60
2023-03-24T05:46:35.350Z,2.88
2023-03-24T05:49:26.024Z,2.65
2023-03-24T05:52:21.583Z,2.50
2023-03-24T05:55:12.946Z,2.60
2023-03-24T05:58:06.016Z,2.78
2023-03-24T06:01:11.400Z,2.60
2023-03-24T06:04:01.667Z,2.50
2023-03-24T06:06:51.544Z,2.95
2023-03-24T06:09:48.013Z,2.78
2023-03-24T06:12:37.840Z,3.70
2023-03-24T06:15:28.855Z,2.63
2023-03-24T06:18:28.178Z,2.55
2023-03-24T06:21:19.886Z,2.67
2023-03-24T06:24:09.468Z,2.80
2023-03-24T06:27:03.228Z,2.50
2023-03-24T06:29:56.370Z,2.58
2023-03-24T06:32:49.890Z,2.60
2023-03-24T06:35:41.881Z,2.47
2023-03-24T06:38:35.337Z,2.50
2023-03-24T06:41:26.152Z,2.50
2023-03-24T06:44:19.724Z,2.78
2023-03-24T06:47:09.290Z,2.83
2023-03-24T06:49:58.646Z,2.70
2023-03-24T06:52:48.129Z,2.70
2023-03-24T06:58:32.863Z,2.97
2023-03-24T07:01:27.232Z,2.83
2023-03-24T07:04:39.590Z,3.00
2023-03-24T07:10:51.840Z,2.75
2023-03-24T07:13:41.215Z,2.60
2023-03-24T07:16:30.676Z,3.33
2023-03-24T07:19:34.996Z,3.00
2023-03-24T07:22:59.683Z,3.03
2023-03-24T07:25:49.081Z,3.10
2023-03-24T07:28:44.858Z,2.63
2023-03-24T07:31:39.199Z,2.92
2023-03-24T07:34:33.054Z,3.22
2023-03-24T07:37:22.935Z,3.05
2023-03-24T07:40:14.135Z,3.15
2023-03-24T07:43:06.424Z,3.00
2023-03-24T07:46:14.108Z,3.30
2023-03-24T07:49:18.189Z,3.40
2023-03-24T07:52:16.530Z,3.17
2023-03-24T07:55:13.020Z,2.80
2023-03-24T07:58:13.863Z,3.03
2023-03-24T08:01:13.457Z,3.00
2023-03-24T08:04:07.803Z,3.05
2023-03-24T08:07:16.130Z,2.97
2023-03-24T08:10:05.640Z,3.10
2023-03-24T08:12:55.005Z,2.80
2023-03-24T08:15:44.642Z,2.80
2023-03-24T08:18:36.085Z,3.00
2023-03-24T08:21:28.492Z,3.00
2023-03-24T08:24:18.703Z,3.22
2023-03-24T08:27:11.691Z,3.10
2023-03-24T08:30:01.536Z,2.90
2023-03-24T08:32:56.513Z,2.92
2023-03-24T08:35:49.428Z,2.80
2023-03-24T08:38:40.060Z,2.90
2023-03-24T08:41:36.021Z,2.50
2023-03-24T08:44:25.487Z,2.88
2023-03-24T08:47:14.774Z,3.00
2023-03-24T08:50:04.108Z,3.00
2023-03-24T08:52:54.745Z,3.00
2023-03-24T08:55:46.037Z,3.25
2023-03-24T08:58:35.759Z,3.00
2023-03-24T09:01:25.699Z,3.00
2023-03-24T09:04:15.179Z,2.80
2023-03-24T09:07:04.995Z,2.92
2023-03-24T09:09:54.428Z,3.10
2023-03-24T09:12:44.405Z,2.70
2023-03-24T09:15:34.622Z,3.53
2023-03-24T09:18:23.959Z,2.83
2023-03-24T09:21:13.462Z,2.97
2023-03-24T09:24:02.792Z,3.00
2023-03-24T09:26:52.280Z,3.15
2023-03-24T09:29:41.634Z,3.13
2023-03-24T09:32:31.241Z,2.70
2023-03-24T09:35:20.677Z,2.83
2023-03-24T09:38:13.226Z,2.95
2023-03-24T09:41:04.025Z,3.55
2023-03-24T09:43:58.218Z,2.90
2023-03-24T09:46:56.136Z,2.95
2023-03-24T09:49:46.483Z,2.63
2023-03-24T09:52:40.963Z,3.10
2023-03-24T09:55:30.965Z,2.63
2023-03-24T09:58:21.976Z,2.90
2023-03-24T10:01:19.261Z,2.65
2023-03-24T10:04:26.002Z,3.08
2023-03-24T10:07:18.427Z,2.50
2023-03-24T10:10:36.282Z,2.90
2023-03-24T10:13:50.742Z,2.63
2023-03-24T10:16:58.447Z,2.70
2023-03-24T10:20:18.517Z,3.05
2023-03-24T10:23:19.662Z,2.83
2023-03-24T10:26:29.758Z,2.92
2023-03-24T10:29:32.055Z,3.20
2023-03-24T10:32:28.674Z,2.92
2023-03-24T10:35:24.212Z,2.92
2023-03-24T10:38:22.170Z,2.90
2023-03-24T10:41:21.152Z,3.03
2023-03-24T10:44:12.930Z,2.90
2023-03-24T10:47:09.636Z,3.10
2023-03-24T10:50:12.523Z,3.00
2023-03-24T10:53:11.214Z,2.90
2023-03-24T10:56:01.048Z,2.63
2023-03-24T10:58:50.497Z,2.97
2023-03-24T11:01:39.960Z,3.00
2023-03-24T11:04:31.813Z,2.80
2023-03-24T11:07:23.977Z,3.05
2023-03-24T11:10:16.546Z,3.00
2023-03-24T11:13:08.918Z,2.80
2023-03-24T11:16:15.061Z,2.75
2023-03-24T11:19:07.909Z,2.90
2023-03-24T11:22:04.618Z,2.97
2023-03-24T11:24:57.868Z,2.75
2023-03-24T11:27:47.127Z,3.00
2023-03-24T11:30:52.241Z,2.78
2023-03-24T11:33:51.169Z,2.92
2023-03-24T11:36:53.767Z,2.53
2023-03-24T11:39:43.204Z,3.22
2023-03-24T11:42:32.602Z,2.53
2023-03-24T11:45:22.968Z,2.78
2023-03-24T11:48:41.898Z,3.10
2023-03-24T11:51:38.983Z,2.97
2023-03-24T11:54:38.125Z,2.60
2023-03-24T11:58:04.060Z,3.45
2023-03-24T12:01:13.446Z,2.70
2023-03-24T12:04:20.876Z,2.80
2023-03-24T12:07:34.285Z,2.72
2023-03-24T12:10:42.690Z,2.53
2023-03-24T12:13:37.655Z,2.47
2023-03-24T12:16:41.953Z,2.65
2023-03-24T12:19:52.009Z,2.90
2023-03-24T12:23:09.176Z,3.00
2023-03-24T12:26:08.052Z,2.72
2023-03-24T12:29:36.822Z,2.70
2023-03-24T12:33:04.795Z,2.90
2023-03-24T12:36:25.021Z,2.58
2023-03-24T12:39:33.188Z,2.97
2023-03-24T12:42:25.101Z,2.47
2023-03-24T12:45:17.551Z,2.80
2023-03-24T12:48:31.354Z,2.45
2023-03-24T12:54:47.115Z,2.80
2023-03-24T12:57:43.030Z,2.70
2023-03-24T13:00:40.757Z,2.50
2023-03-24T13:03:43.744Z,2.70
2023-03-24T13:06:57.800Z,2.70
2023-03-24T13:10:02.845Z,3.17
2023-03-24T13:13:12.753Z,2.80
2023-03-24T13:16:29.239Z,2.83
2023-03-24T13:19:24.378Z,2.92
2023-03-24T13:22:17.826Z,2.83
2023-03-24T13:28:06.312Z,2.80
2023-03-24T13:30:56.915Z,2.80
2023-03-24T13:33:46.740Z,2.40
2023-03-24T13:37:06.849Z,2.40
2023-03-24T13:40:03.099Z,2.78
2023-03-24T13:43:15.090Z,5.80
2023-03-24T13:46:14.569Z,5.10
2023-03-24T13:49:08.084Z,6.10
2023-03-24T13:54:46.364Z,5.72
2023-03-24T13:57:35.845Z,4.78
2023-03-24T14:00:27.459Z,4.20
2023-03-24T14:03:44.364Z,4.70
2023-03-24T14:06:48.996Z,4.97
2023-03-24T14:09:59.348Z,4.13
2023-03-24T14:13:02.812Z,6.03
2023-03-24T14:15:59.960Z,4.43
2023-03-24T14:18:49.827Z,3.88
2023-03-24T14:21:42.773Z,3.83
2023-03-24T14:24:34.115Z,3.97
2023-03-24T14:27:32.752Z,4.00
2023-03-24T14:30:31.660Z,4.03
2023-03-24T14:33:27.058Z,3.90
2023-03-24T14:36:24.297Z,5.10
2023-03-24T14:39:37.955Z,3.95
2023-03-24T14:42:49.964Z,4.63
2023-03-24T14:45:39.244Z,4.28
2023-03-24T14:48:35.697Z,4.25
2023-03-24T14:51:40.485Z,6.97
2023-03-24T14:55:00.307Z,4.25
2023-03-24T14:57:55.259Z,4.18
2023-03-24T15:00:57.963Z,4.25
2023-03-24T15:04:22.937Z,3.70
2023-03-24T15:07:15.937Z,3.95
2023-03-24T15:10:05.497Z,3.97
2023-03-24T15:12:54.843Z,3.65
2023-03-24T15:15:49.361Z,6.35
2023-03-24T15:18:59.943Z,3.95
2023-03-24T15:22:02.724Z,4.22
2023-03-24T15:24:53.518Z,3.67
2023-03-24T15:27:42.890Z,5.72
2023-03-24T15:30:32.726Z,3.63
2023-03-24T15:33:22.915Z,3.55
2023-03-24T15:36:19.905Z,6.40
2023-03-24T15:39:26.216Z,4.05
2023-03-24T15:42:18.763Z,3.50
2023-03-24T15:45:21.713Z,3.80
2023-03-24T15:48:17.763Z,3.55
2023-03-24T15:51:10.366Z,3.90
2023-03-24T15:54:00.329Z,4.20
2023-03-24T15:57:15.968Z,4.07
2023-03-24T16:00:12.924Z,4.90
2023-03-24T16:03:05.384Z,3.95
2023-03-24T16:05:58.527Z,3.55
2023-03-24T16:08:50.729Z,3.45
2023-03-24T16:11:40.021Z,3.30
2023-03-24T16:14:34.433Z,3.65
2023-03-24T16:17:23.744Z,3.47
2023-03-24T16:20:22.907Z,3.78
2023-03-24T16:23:13.143Z,3.97
2023-03-24T16:26:02.393Z,3.38
2023-03-24T16:28:52.989Z,3.53
2023-03-24T16:31:42.440Z,3.45
2023-03-24T16:34:32.766Z,3.20
2023-03-24T16:37:22.082Z,3.30
2023-03-24T16:40:35.306Z,3.50
2023-03-24T16:43:25.113Z,3.75
2023-03-24T16:46:18.005Z,3.20
2023-03-24T16:49:09.499Z,3.50
2023-03-24T16:51:58.798Z,3.13
2023-03-24T16:54:48.056Z,3.30
2023-03-24T16:57:38.370Z,3.47
2023-03-24T17:00:29.682Z,3.47
2023-03-24T17:03:19.237Z,3.58
2023-03-24T17:06:10.122Z,3.30
2023-03-24T17:08:59.999Z,2.80
2023-03-24T17:11:55.691Z,3.50
2023-03-24T17:14:45.445Z,3.10
2023-03-24T17:17:34.986Z,3.10
2023-03-24T17:20:25.273Z,3.15
2023-03-24T17:23:17.915Z,3.30
2023-03-24T17:26:07.219Z,3.10
2023-03-24T17:28:57.318Z,3.10
2023-03-24T17:31:46.755Z,3.38
2023-03-24T17:34:36.082Z,3.53
2023-03-24T17:37:27.029Z,3.42
2023-03-24T17:40:18.855Z,3.03
2023-03-24T17:43:08.133Z,3.63
2023-03-24T17:46:01.727Z,3.25
2023-03-24T17:48:50.941Z,3.22
2023-03-24T17:51:40.362Z,3.17
2023-03-24T17:54:29.932Z,2.70
2023-03-24T17:57:19.339Z,3.13
2023-03-24T18:00:12.653Z,2.88
2023-03-24T18:03:02.141Z,2.88
2023-03-24T18:05:51.496Z,3.15
2023-03-24T18:08:41.660Z,2.70
2023-03-24T18:11:31.090Z,3.80
2023-03-24T18:14:20.803Z,3.08
2023-03-24T18:17:10.579Z,3.00
2023-03-24T18:20:07.630Z,2.92
2023-03-24T18:22:56.933Z,3.15
2023-03-24T18:25:46.268Z,2.70
2023-03-24T18:28:38.320Z,3.50
2023-03-24T18:31:28.268Z,3.38
2023-03-24T18:34:19.040Z,3.13
2023-03-24T18:37:08.666Z,2.80
2023-03-24T18:39:57.936Z,2.90
2023-03-24T18:42:47.186Z,2.90
2023-03-24T18:45:36.483Z,3.10
2023-03-24T18:48:25.880Z,3.67
2023-03-24T18:51:16.767Z,2.97
2023-03-24T18:54:06.841Z,2.60
2023-03-24T18:56:56.162Z,2.83
2023-03-24T18:59:45.491Z,2.90
2023-03-24T19:02:34.840Z,2.63
2023-03-24T19:05:24.337Z,2.85
2023-03-24T19:08:16.084Z,2.60
2023-03-24T19:11:06.089Z,2.97
2023-03-24T19:13:57.833Z,2.85
2023-03-24T19:16:47.111Z,3.13
2023-03-24T19:19:36.460Z,2.83
2023-03-24T19:22:27.932Z,2.70
2023-03-24T19:25:17.224Z,3.10
2023-03-24T19:28:06.993Z,3.00
2023-03-24T19:31:00.433Z,2.63
2023-03-24T19:36:47.021Z,2.63
2023-03-24T19:39:39.159Z,2.97
2023-03-24T19:42:33.182Z,2.72
2023-03-24T19:45:23.053Z,3.05
2023-03-24T19:48:13.483Z,2.65
2023-03-24T19:51:02.899Z,2.85
2023-03-24T19:53:55.190Z,2.75
2023-03-24T19:56:44.657Z,2.88
2023-03-24T19:59:34.092Z,2.92
2023-03-24T20:02:23.432Z,2.50
2023-03-24T20:05:12.877Z,2.60
2023-03-24T20:08:02.497Z,2.80
2023-03-24T20:10:52.110Z,2.53
2023-03-24T20:13:41.422Z,2.80
2023-03-24T20:16:30.944Z,2.72
2023-03-24T20:19:20.282Z,2.50
2023-03-24T20:22:09.536Z,2.47
2023-03-24T20:24:58.786Z,2.80
2023-03-24T20:27:48.785Z,2.47
2023-03-24T20:30:38.092Z,2.88
2023-03-24T20:33:29.713Z,2.80
2023-03-24T20:36:19.396Z,2.90
2023-03-24T20:39:09.206Z,2.60
2023-03-24T20:41:58.631Z,2.70
2023-03-24T20:44:47.923Z,2.67
2023-03-24T20:47:37.843Z,2.67
2023-03-24T20:50:28.587Z,2.83
2023-03-24T20:53:18.223Z,2.88
2023-03-24T20:56:16.242Z,2.53
2023-03-24T20:59:08.794Z,2.60
2023-03-24T21:01:59.517Z,2.60
2023-03-24T21:04:48.837Z,2.70
2023-03-24T21:07:44.661Z,2.83
2023-03-24T21:10:37.181Z,2.50
2023-03-24T21:13:36.961Z,2.40
2023-03-24T21:16:27.832Z,2.70
2023-03-24T21:19:17.647Z,2.60
2023-03-24T21:22:06.977Z,2.58
2023-03-24T21:25:00.467Z,2.85
2023-03-24T21:27:49.867Z,2.90
2023-03-24T21:30:39.149Z,2.70
2023-03-24T21:33:28.856Z,2.95
2023-03-24T21:36:18.429Z,2.75
2023-03-24T21:39:10.307Z,2.70
2023-03-24T21:41:59.611Z,2.50
2023-03-24T21:44:48.898Z,2.80
2023-03-24T21:47:38.397Z,2.60
2023-03-24T21:50:30.116Z,2.40
2023-03-24T21:53:20.107Z,2.80
2023-03-24T21:56:09.740Z,2.70
2023-03-24T21:58:59.035Z,2.60
2023-03-24T22:01:48.768Z,2.60
2023-03-24T22:04:39.346Z,2.67
2023-03-24T22:07:38.561Z,2.53
2023-03-24T22:10:30.758Z,2.50
2023-03-24T22:13:20.140Z,3.10
2023-03-24T22:16:09.837Z,2.30
2023-03-24T22:18:59.779Z,2.40
2023-03-24T22:21:58.120Z,2.60
2023-03-24T22:24:47.553Z,2.40
2023-03-24T22:27:37.533Z,2.40
2023-03-24T22:30:26.921Z,2.70
2023-03-24T22:33:16.503Z,2.47
2023-03-24T22:36:06.942Z,2.45
2023-03-24T22:38:56.241Z,2.30
2023-03-24T22:41:46.034Z,2.45
2023-03-24T22:44:35.303Z,2.50
2023-03-24T22:47:25.011Z,2.53
2023-03-24T22:50:14.324Z,2.53
2023-03-24T22:53:03.770Z,2.40
2023-03-24T22:55:53.584Z,2.47
2023-03-24T22:58:43.666Z,2.10
2023-03-24T23:01:32.942Z,2.47
2023-03-24T23:04:22.693Z,2.38
2023-03-24T23:07:12.290Z,2.47
2023-03-24T23:10:01.677Z,2.35
2023-03-24T23:12:53.052Z,2.40
2023-03-24T23:15:43.604Z,2.55
2023-03-24T23:18:33.254Z,2.50
2023-03-24T23:21:22.625Z,2.45
2023-03-24T23:24:12.291Z,2.30
2023-03-24T23:27:02.326Z,2.45
2023-03-24T23:29:51.701Z,2.20
2023-03-24T23:32:42.398Z,2.30
2023-03-24T23:35:34.231Z,2.25
2023-03-24T23:38:23.803Z,2.42
2023-03-24T23:41:13.407Z,2.40
2023-03-24T23:44:02.795Z,2.30
2023-03-24T23:46:52.561Z,2.85
2023-03-24T23:49:43.809Z,2.25
2023-03-24T23:52:33.048Z,2.50
2023-03-24T23:55:22.957Z,2.30
2023-03-24T23:58:13.110Z,2.55
